Time;durP1;ratioP1;P1;durP2;ratioP2;P2;SDS_P1;SDS_P2;PMS_P1;PMS_P2;Temp;Humidity;BMP_temperature;BMP_pressure;BME280_temperature;BME280_humidity;BME280_pressure;Samples;Min_cycle;Max_cycle;Signal;HPM_P1;HPM_P2
2023/07/21 00:01:00;;;;;;;44.47;28.30;;;15.60;99.90;;;;;;4965128;28;20102;-60
2023/07/21 00:03:25;;;;;;;43.35;27.13;;;15.50;99.90;;;;;;4968809;28;20022;-59
2023/07/21 00:05:51;;;;;;;53.28;28.63;;;15.50;99.90;;;;;;4963399;28;20042;-60
2023/07/21 00:08:17;;;;;;;44.78;28.35;;;15.50;99.90;;;;;;4969166;28;20560;-60
2023/07/21 00:10:43;;;;;;;48.88;28.02;;;15.40;99.90;;;;;;4969580;28;20041;-61
2023/07/21 00:13:09;;;;;;;40.40;27.40;;;15.40;99.90;;;;;;4965965;28;20023;-61
2023/07/21 00:15:35;;;;;;;44.88;26.50;;;15.40;99.90;;;;;;4969896;28;20078;-62
2023/07/21 00:18:01;;;;;;;47.05;27.85;;;15.50;99.90;;;;;;4967642;28;20031;-60
2023/07/21 00:20:26;;;;;;;41.33;27.25;;;15.40;99.90;;;;;;4964920;28;20098;-61
2023/07/21 00:22:52;;;;;;;47.38;27.80;;;15.50;99.90;;;;;;4961260;28;20118;-61
2023/07/21 00:25:18;;;;;;;45.97;26.00;;;15.50;99.90;;;;;;4971998;28;20437;-61
2023/07/21 00:27:44;;;;;;;42.88;27.60;;;15.40;99.90;;;;;;4972508;28;20069;-60
2023/07/21 00:30:10;;;;;;;46.85;27.55;;;15.40;99.90;;;;;;4972589;28;20122;-61
2023/07/21 00:32:37;;;;;;;41.75;27.55;;;15.40;99.90;;;;;;4971761;28;20093;-62
2023/07/21 00:35:12;;;;;;;45.92;28.20;;;15.30;99.90;;;;;;4970735;28;20974;-62
2023/07/21 00:37:39;;;;;;;46.15;29.30;;;15.40;99.90;;;;;;4973803;28;20023;-62
2023/07/21 00:40:09;;;;;;;49.78;29.58;;;15.40;99.90;;;;;;4973053;28;20508;-61
2023/07/21 00:42:35;;;;;;;49.25;30.20;;;15.40;99.90;;;;;;4972467;28;20029;-59
2023/07/21 00:45:01;;;;;;;50.90;29.48;;;15.40;99.90;;;;;;4972735;28;20038;-61
2023/07/21 00:47:29;;;;;;;53.60;31.38;;;15.40;99.90;;;;;;4971837;28;20866;-61
2023/07/21 00:49:56;;;;;;;50.08;30.60;;;15.40;99.90;;;;;;4971417;28;20762;-61
2023/07/21 00:52:23;;;;;;;47.38;29.60;;;15.40;99.90;;;;;;4972518;28;20109;-60
2023/07/21 00:54:49;;;;;;;50.00;30.52;;;15.40;99.90;;;;;;4964179;28;20039;-61
2023/07/21 00:57:16;;;;;;;51.67;30.17;;;15.50;99.90;;;;;;4968871;28;20576;-61
2023/07/21 00:59:41;;;;;;;50.80;30.55;;;15.60;99.90;;;;;;4964429;28;20019;-61
2023/07/21 01:02:07;;;;;;;48.85;30.45;;;15.60;99.90;;;;;;4962992;28;20089;-60
2023/07/21 01:04:33;;;;;;;47.92;29.38;;;15.60;99.90;;;;;;4962536;28;20024;-61
2023/07/21 01:07:05;;;;;;;44.60;28.20;;;15.70;99.90;;;;;;4967752;28;20022;-59
2023/07/21 01:09:35;;;;;;;48.38;29.52;;;15.60;99.90;;;;;;4964991;28;20050;-59
2023/07/21 01:12:01;;;;;;;42.78;27.30;;;15.70;99.90;;;;;;4960176;28;20434;-58
2023/07/21 01:14:29;;;;;;;46.15;29.13;;;15.70;99.90;;;;;;4963276;28;20401;-59
2023/07/21 01:16:57;;;;;;;45.53;30.65;;;15.70;99.90;;;;;;4963322;28;20038;-61
2023/07/21 01:19:23;;;;;;;46.13;31.13;;;15.70;99.90;;;;;;4963727;28;20523;-60
2023/07/21 01:21:55;;;;;;;47.42;30.15;;;15.60;99.90;;;;;;4966827;28;20031;-61
2023/07/21 01:24:51;;;;;;;46.72;30.10;;;15.60;99.90;;;;;;4969784;28;20150;-61
2023/07/21 01:27:24;;;;;;;52.15;32.28;;;15.60;99.90;;;;;;4957496;28;20031;-59
2023/07/21 01:29:52;;;;;;;45.38;30.40;;;15.60;99.90;;;;;;4960818;28;20030;-59
2023/07/21 01:32:20;;;;;;;50.88;30.50;;;15.70;99.90;;;;;;4962666;28;20089;-61
2023/07/21 01:34:47;;;;;;;51.63;31.15;;;15.70;99.90;;;;;;4960510;28;20019;-61
2023/07/21 01:37:14;;;;;;;55.55;32.03;;;15.80;99.90;;;;;;4965769;28;20080;-61
2023/07/21 01:39:41;;;;;;;44.05;27.38;;;15.80;99.90;;;;;;4967021;28;20015;-61
2023/07/21 01:42:07;;;;;;;44.63;29.17;;;15.80;99.90;;;;;;4963883;28;20381;-61
2023/07/21 01:44:33;;;;;;;52.05;28.65;;;15.90;99.90;;;;;;4962332;28;20023;-60
2023/07/21 01:46:58;;;;;;;49.22;31.08;;;15.90;99.90;;;;;;4969832;28;20608;-61
2023/07/21 01:49:24;;;;;;;45.20;30.23;;;15.90;99.90;;;;;;4957964;28;20024;-62
2023/07/21 01:51:57;;;;;;;45.58;28.48;;;15.90;99.90;;;;;;4970962;28;20029;-62
2023/07/21 01:55:07;;;;;;;49.53;29.42;;;15.90;99.90;;;;;;4971167;28;20130;-62
2023/07/21 01:57:38;;;;;;;48.10;30.15;;;15.80;99.90;;;;;;4912097;29;20035;-61
2023/07/21 02:00:10;;;;;;;51.40;30.92;;;15.70;99.90;;;;;;4961764;28;20048;-61
2023/07/21 02:02:37;;;;;;;51.85;29.42;;;15.70;99.90;;;;;;4965563;28;20027;-56
2023/07/21 02:05:05;;;;;;;52.05;32.13;;;15.80;99.90;;;;;;4965777;28;20428;-61
2023/07/21 02:07:32;;;;;;;45.28;29.08;;;15.80;99.90;;;;;;4971562;28;20030;-60
2023/07/21 02:09:58;;;;;;;43.35;30.00;;;15.80;99.90;;;;;;4970859;28;20046;-61
2023/07/21 02:12:24;;;;;;;42.40;28.40;;;15.80;99.90;;;;;;4970943;28;20409;-61
2023/07/21 02:14:50;;;;;;;45.17;30.30;;;15.80;99.90;;;;;;4970957;28;20027;-61
2023/07/21 02:17:15;;;;;;;48.65;31.02;;;15.90;99.90;;;;;;4964467;28;20401;-60
2023/07/21 02:19:41;;;;;;;47.85;30.25;;;15.80;99.90;;;;;;4969614;28;20023;-60
2023/07/21 02:22:07;;;;;;;50.28;29.73;;;15.80;99.90;;;;;;4970259;28;20054;-60
2023/07/21 02:24:32;;;;;;;50.47;30.15;;;15.70;99.90;;;;;;4970105;28;20105;-60
2023/07/21 02:26:59;;;;;;;43.67;28.17;;;15.80;99.90;;;;;;4971275;28;20030;-60
2023/07/21 02:29:25;;;;;;;44.35;28.52;;;15.80;99.90;;;;;;4974498;28;20410;-59
2023/07/21 02:31:50;;;;;;;41.85;27.45;;;15.80;99.90;;;;;;4973520;28;20019;-60
2023/07/21 02:34:16;;;;;;;41.17;27.55;;;15.80;99.90;;;;;;4967102;28;20513;-61
2023/07/21 02:36:41;;;;;;;41.53;27.50;;;15.80;99.90;;;;;;4971828;28;20054;-61
2023/07/21 02:39:07;;;;;;;36.85;24.38;;;15.80;99.90;;;;;;4975470;28;20031;-61
2023/07/21 02:41:32;;;;;;;39.42;24.50;;;15.80;99.90;;;;;;4973567;28;20031;-62
2023/07/21 02:43:59;;;;;;;41.53;27.05;;;15.80;99.90;;;;;;4971931;28;20031;-61
2023/07/21 02:46:24;;;;;;;39.75;25.42;;;15.90;99.90;;;;;;4966766;28;20027;-60
2023/07/21 02:48:50;;;;;;;39.60;26.52;;;15.90;99.90;;;;;;4971663;28;20041;-61
2023/07/21 02:51:16;;;;;;;40.90;27.13;;;15.80;99.90;;;;;;4973539;28;20022;-61
2023/07/21 02:53:42;;;;;;;43.83;27.08;;;15.80;99.90;;;;;;4974450;28;20026;-61
2023/07/21 02:56:08;;;;;;;43.50;27.30;;;15.80;99.90;;;;;;4971464;28;20023;-61
2023/07/21 02:58:33;;;;;;;44.92;28.83;;;15.80;99.90;;;;;;4973219;28;20098;-60
2023/07/21 03:01:02;;;;;;;38.00;24.63;;;15.80;99.90;;;;;;4969801;28;20106;-59
2023/07/21 03:03:28;;;;;;;42.97;28.10;;;15.80;99.90;;;;;;4974122;28;20023;-61
2023/07/21 03:05:54;;;;;;;43.13;27.67;;;15.80;99.90;;;;;;4974777;28;20081;-58
2023/07/21 03:08:26;;;;;;;46.45;29.23;;;15.70;99.90;;;;;;4965793;28;20070;-60
2023/07/21 03:10:53;;;;;;;47.90;29.60;;;15.60;99.90;;;;;;4968680;28;20022;-61
2023/07/21 03:13:20;;;;;;;49.47;31.13;;;15.50;99.90;;;;;;4965302;28;20027;-57
2023/07/21 03:15:45;;;;;;;53.28;34.22;;;15.50;99.90;;;;;;4968469;28;20034;-56
2023/07/21 03:18:11;;;;;;;54.78;33.05;;;15.60;99.90;;;;;;4971154;28;20441;-61
2023/07/21 03:20:36;;;;;;;58.80;35.03;;;15.50;99.90;;;;;;4970983;28;20049;-61
2023/07/21 03:23:02;;;;;;;57.42;34.20;;;15.50;99.90;;;;;;4969031;28;20030;-61
2023/07/21 03:25:28;;;;;;;52.45;31.90;;;15.60;99.90;;;;;;4974265;28;20037;-60
2023/07/21 03:27:54;;;;;;;57.10;33.63;;;15.60;99.90;;;;;;4967453;28;20035;-62
2023/07/21 03:30:19;;;;;;;63.85;33.75;;;15.60;99.90;;;;;;4974024;28;20033;-60
2023/07/21 03:32:45;;;;;;;58.97;35.10;;;15.60;99.90;;;;;;4969300;28;20034;-61
2023/07/21 03:35:11;;;;;;;59.53;35.38;;;15.60;99.90;;;;;;4971718;28;20061;-61
2023/07/21 03:37:36;;;;;;;57.35;34.38;;;15.60;99.90;;;;;;4972305;28;20551;-61
2023/07/21 03:40:06;;;;;;;53.88;32.65;;;15.60;99.90;;;;;;4974537;28;20082;-61
2023/07/21 03:42:35;;;;;;;52.40;32.20;;;15.70;99.90;;;;;;4966412;28;20370;-61
2023/07/21 03:45:05;;;;;;;61.90;34.63;;;15.80;99.90;;;;;;4971513;28;20034;-61
2023/07/21 03:47:32;;;;;;;51.45;33.33;;;15.80;99.90;;;;;;4968804;28;20085;-61
2023/07/21 03:49:58;;;;;;;52.75;31.05;;;15.60;99.90;;;;;;4973488;28;20038;-59
2023/07/21 03:52:24;;;;;;;47.67;31.42;;;15.60;99.90;;;;;;4963605;28;20096;-61
2023/07/21 03:54:49;;;;;;;49.90;30.65;;;15.60;99.90;;;;;;4972822;28;20386;-56
2023/07/21 03:57:15;;;;;;;47.60;29.77;;;15.70;99.90;;;;;;4973282;28;20045;-59
2023/07/21 03:59:42;;;;;;;41.38;29.02;;;15.70;99.90;;;;;;4968216;28;20051;-56
2023/07/21 04:02:08;;;;;;;44.78;29.02;;;15.80;99.90;;;;;;4971069;28;20050;-61
2023/07/21 04:04:34;;;;;;;47.75;28.77;;;15.80;99.90;;;;;;4972511;28;20026;-62
2023/07/21 04:07:01;;;;;;;53.08;31.52;;;15.80;99.90;;;;;;4970001;28;20034;-58
2023/07/21 04:09:28;;;;;;;48.90;29.95;;;15.80;99.90;;;;;;4971616;28;20027;-61
2023/07/21 04:11:53;;;;;;;43.95;29.35;;;15.80;99.90;;;;;;4971566;28;20058;-61
2023/07/21 04:14:19;;;;;;;49.45;30.95;;;15.70;99.90;;;;;;4971110;28;20089;-61
2023/07/21 04:16:44;;;;;;;50.92;30.85;;;15.60;99.90;;;;;;4972788;28;20030;-61
2023/07/21 04:19:10;;;;;;;51.05;31.05;;;15.60;99.90;;;;;;4972393;28;20029;-61
2023/07/21 04:21:35;;;;;;;53.72;32.88;;;15.60;99.90;;;;;;4969461;28;20019;-63
2023/07/21 04:24:01;;;;;;;55.95;35.90;;;15.50;99.90;;;;;;4972453;28;20042;-61
2023/07/21 04:26:26;;;;;;;54.03;33.88;;;15.50;99.90;;;;;;4968906;28;20041;-61
2023/07/21 04:28:51;;;;;;;60.50;35.50;;;15.50;99.90;;;;;;4968247;28;20031;-60
2023/07/21 04:31:21;;;;;;;63.85;36.50;;;15.50;99.90;;;;;;4967427;28;20034;-62
2023/07/21 04:33:48;;;;;;;61.83;36.70;;;15.50;99.90;;;;;;4973852;28;20022;-61
2023/07/21 04:36:13;;;;;;;58.45;32.60;;;15.50;99.90;;;;;;4969175;28;20109;-61
2023/07/21 04:38:39;;;;;;;58.17;34.60;;;15.60;99.90;;;;;;4971357;28;20070;-62
2023/07/21 04:41:04;;;;;;;60.45;35.63;;;15.60;99.90;;;;;;4973185;28;20099;-59
2023/07/21 04:43:30;;;;;;;60.92;35.90;;;15.60;99.90;;;;;;4966864;28;20393;-62
2023/07/21 04:45:55;;;;;;;67.13;37.92;;;15.60;99.90;;;;;;4970810;28;20032;-61
2023/07/21 04:48:21;;;;;;;59.08;36.13;;;15.60;99.90;;;;;;4969330;28;20027;-62
2023/07/21 04:50:53;;;;;;;66.28;38.35;;;15.60;99.90;;;;;;4985811;28;20117;-61
2023/07/21 04:53:19;;;;;;;66.18;38.83;;;15.60;99.90;;;;;;4970633;28;20692;-62
2023/07/21 04:55:45;;;;;;;58.15;35.17;;;15.60;99.90;;;;;;4971603;28;20046;-61
2023/07/21 04:58:10;;;;;;;66.50;38.38;;;15.70;99.90;;;;;;4965982;28;20027;-61
2023/07/21 05:00:36;;;;;;;63.78;36.35;;;15.70;99.90;;;;;;4968405;28;20140;-62
2023/07/21 05:03:01;;;;;;;59.10;35.08;;;15.70;99.90;;;;;;4963722;28;20485;-60
2023/07/21 05:05:27;;;;;;;61.33;37.95;;;15.80;99.90;;;;;;4972013;28;20055;-62
2023/07/21 05:07:54;;;;;;;65.70;38.78;;;15.80;99.90;;;;;;4970213;28;20031;-61
2023/07/21 05:10:20;;;;;;;64.47;37.25;;;15.70;99.90;;;;;;4972277;28;20027;-61
2023/07/21 05:12:45;;;;;;;65.68;38.00;;;15.80;99.90;;;;;;4972827;28;20411;-61
2023/07/21 05:15:13;;;;;;;57.85;35.13;;;15.80;99.90;;;;;;4966750;28;20147;-62
2023/07/21 05:17:39;;;;;;;73.10;40.25;;;15.90;99.90;;;;;;4961857;28;20020;-61
2023/07/21 05:20:07;;;;;;;61.30;35.08;;;16.00;99.90;;;;;;4965793;28;20027;-60
2023/07/21 05:22:33;;;;;;;65.40;36.05;;;16.10;99.90;;;;;;4963629;28;20022;-59
2023/07/21 05:24:58;;;;;;;61.25;36.70;;;16.10;99.90;;;;;;4972809;28;20037;-61
2023/07/21 05:27:24;;;;;;;57.47;35.60;;;16.10;99.90;;;;;;4967671;28;20034;-61
2023/07/21 05:29:49;;;;;;;59.30;34.47;;;16.20;99.90;;;;;;4970822;28;20034;-62
2023/07/21 05:32:15;;;;;;;52.35;34.22;;;16.20;99.90;;;;;;4963999;28;20397;-61
2023/07/21 05:34:42;;;;;;;50.90;31.85;;;16.20;99.90;;;;;;4962736;28;20019;-59
2023/07/21 05:37:08;;;;;;;48.45;31.58;;;16.20;99.90;;;;;;4966392;28;20026;-61
2023/07/21 05:39:33;;;;;;;46.55;29.77;;;16.30;99.90;;;;;;4962539;28;20031;-60
2023/07/21 05:41:59;;;;;;;56.08;31.73;;;16.30;99.90;;;;;;4968797;28;20023;-60
2023/07/21 05:44:26;;;;;;;52.22;29.55;;;16.30;99.90;;;;;;4970255;28;20070;-61
2023/07/21 05:46:52;;;;;;;41.90;27.48;;;16.30;99.90;;;;;;4969158;28;20392;-59
2023/07/21 05:49:17;;;;;;;59.78;31.98;;;16.40;99.90;;;;;;4971093;28;20633;-60
2023/07/21 05:51:44;;;;;;;44.88;30.42;;;16.40;99.90;;;;;;4967437;28;20059;-60
2023/07/21 05:54:09;;;;;;;43.17;28.25;;;16.40;99.90;;;;;;4966913;28;20517;-61
2023/07/21 05:56:36;;;;;;;47.22;31.10;;;16.30;99.90;;;;;;4970869;28;20030;-61
2023/07/21 05:59:02;;;;;;;46.80;30.40;;;16.40;99.90;;;;;;4964091;28;20489;-61
2023/07/21 06:01:28;;;;;;;49.13;32.17;;;16.30;99.90;;;;;;4964387;28;20149;-60
2023/07/21 06:03:53;;;;;;;55.10;33.47;;;16.10;99.90;;;;;;4970401;28;20023;-60
2023/07/21 06:06:20;;;;;;;54.58;32.42;;;16.10;99.90;;;;;;4970685;28;20669;-59
2023/07/21 06:08:45;;;;;;;56.63;35.00;;;16.20;99.90;;;;;;4965147;28;20103;-58
2023/07/21 06:11:11;;;;;;;60.03;34.65;;;16.20;99.90;;;;;;4971497;28;20051;-59
2023/07/21 06:13:36;;;;;;;51.60;33.33;;;16.20;99.90;;;;;;4957611;28;20055;-58
2023/07/21 06:16:02;;;;;;;51.00;33.03;;;16.30;99.90;;;;;;4983377;28;20408;-59
2023/07/21 06:18:28;;;;;;;59.53;34.20;;;16.30;99.90;;;;;;4969134;28;20069;-59
2023/07/21 06:20:53;;;;;;;51.33;31.13;;;16.30;99.90;;;;;;4968049;28;20489;-59
2023/07/21 06:23:19;;;;;;;54.42;33.40;;;16.30;99.90;;;;;;4964729;28;20029;-59
2023/07/21 06:25:45;;;;;;;58.63;33.08;;;16.30;99.90;;;;;;4966024;28;20035;-63
2023/07/21 06:28:12;;;;;;;53.63;32.33;;;16.40;99.90;;;;;;4964963;28;20413;-63
2023/07/21 06:30:37;;;;;;;49.97;32.72;;;16.40;99.90;;;;;;4967821;28;20023;-61
2023/07/21 06:33:04;;;;;;;50.33;29.98;;;16.40;99.90;;;;;;4965803;28;20061;-62
2023/07/21 06:35:31;;;;;;;54.17;32.95;;;16.50;99.90;;;;;;4962684;28;20039;-61
2023/07/21 06:37:56;;;;;;;49.70;30.52;;;16.50;99.90;;;;;;4965788;28;20030;-58
2023/07/21 06:40:22;;;;;;;45.47;30.52;;;16.60;99.90;;;;;;4969850;28;20033;-63
2023/07/21 06:42:48;;;;;;;55.75;32.40;;;16.60;99.90;;;;;;4965698;28;20026;-63
2023/07/21 06:45:14;;;;;;;46.83;30.05;;;16.60;99.90;;;;;;4961998;28;20039;-61
2023/07/21 06:47:39;;;;;;;48.67;30.63;;;16.70;99.90;;;;;;4960727;28;20034;-58
2023/07/21 06:50:05;;;;;;;45.67;29.17;;;16.60;99.90;;;;;;4968423;28;20035;-61
2023/07/21 06:52:31;;;;;;;44.25;28.45;;;16.70;99.90;;;;;;4964030;28;20038;-62
2023/07/21 06:54:58;;;;;;;51.28;30.33;;;16.80;99.90;;;;;;4951780;28;20050;-61
2023/07/21 06:57:24;;;;;;;48.97;30.35;;;16.90;99.90;;;;;;4966853;28;20061;-62
2023/07/21 06:59:50;;;;;;;51.75;30.10;;;17.00;99.90;;;;;;4962586;28;20031;-61
2023/07/21 07:02:15;;;;;;;47.60;28.15;;;17.10;99.90;;;;;;4957763;28;20041;-61
2023/07/21 07:04:41;;;;;;;43.80;27.05;;;17.00;99.90;;;;;;4968530;28;20027;-61
2023/07/21 07:07:07;;;;;;;48.15;25.92;;;17.10;99.90;;;;;;4964113;28;20027;-60
2023/07/21 07:09:33;;;;;;;44.40;27.55;;;17.10;99.90;;;;;;4963867;28;20406;-60
2023/07/21 07:11:59;;;;;;;45.03;26.17;;;17.10;99.90;;;;;;4966306;28;20037;-61
2023/07/21 07:14:24;;;;;;;44.60;27.67;;;17.10;99.90;;;;;;4969185;28;20054;-61
2023/07/21 07:16:50;;;;;;;45.70;27.38;;;17.20;99.90;;;;;;4973204;28;20508;-61
2023/07/21 07:19:16;;;;;;;43.28;27.70;;;17.20;99.90;;;;;;4962100;28;20042;-61
2023/07/21 07:21:42;;;;;;;47.63;28.55;;;17.20;99.90;;;;;;4964666;28;20102;-60
2023/07/21 07:24:09;;;;;;;48.35;27.88;;;17.30;99.90;;;;;;4963774;28;20569;-61
2023/07/21 07:26:35;;;;;;;51.35;29.85;;;17.30;99.90;;;;;;4966115;28;20062;-61
2023/07/21 07:29:04;;;;;;;42.25;26.27;;;17.40;99.90;;;;;;4962187;28;20129;-59
2023/07/21 07:31:30;;;;;;;38.20;26.77;;;17.50;99.90;;;;;;4971722;28;20038;-61
2023/07/21 07:33:56;;;;;;;46.50;27.80;;;17.70;99.90;;;;;;4964046;28;20031;-62
2023/07/21 07:36:21;;;;;;;42.85;28.20;;;17.70;99.90;;;;;;4973132;28;20041;-61
2023/07/21 07:38:47;;;;;;;44.88;26.58;;;17.70;99.90;;;;;;4965916;28;20026;-58
2023/07/21 07:41:13;;;;;;;48.20;28.33;;;17.80;99.90;;;;;;4971076;28;20510;-61
2023/07/21 07:43:39;;;;;;;44.03;25.90;;;18.00;99.90;;;;;;4973091;28;20041;-61
2023/07/21 07:46:08;;;;;;;40.05;25.65;;;18.00;99.90;;;;;;4969701;28;20161;-61
2023/07/21 07:48:34;;;;;;;41.17;25.50;;;18.00;99.90;;;;;;4972691;28;20034;-61
2023/07/21 07:51:04;;;;;;;40.85;26.35;;;18.10;99.90;;;;;;4970929;28;20039;-61
2023/07/21 07:53:33;;;;;;;44.03;26.33;;;18.20;99.90;;;;;;4969614;28;20027;-59
2023/07/21 07:55:58;;;;;;;39.85;23.80;;;18.30;99.90;;;;;;4970953;28;20045;-61
2023/07/21 07:58:25;;;;;;;33.90;22.95;;;18.30;99.90;;;;;;4972265;28;20035;-62
2023/07/21 08:00:55;;;;;;;36.85;21.50;;;18.40;99.90;;;;;;4963346;28;20386;-60
2023/07/21 08:03:21;;;;;;;34.15;23.58;;;18.60;99.90;;;;;;4966507;28;20035;-60
2023/07/21 08:05:48;;;;;;;33.05;22.50;;;18.70;99.90;;;;;;4972302;28;20033;-61
2023/07/21 08:08:14;;;;;;;36.55;21.95;;;18.70;99.90;;;;;;4970053;28;20033;-61
2023/07/21 08:10:41;;;;;;;37.22;22.80;;;18.90;99.90;;;;;;4970277;28;20035;-61
2023/07/21 08:13:07;;;;;;;36.42;21.55;;;18.90;99.90;;;;;;4972098;28;20018;-60
2023/07/21 08:15:33;;;;;;;35.75;23.00;;;18.90;99.90;;;;;;4971084;28;20027;-58
2023/07/21 08:17:59;;;;;;;34.50;23.10;;;18.90;99.90;;;;;;4969038;28;20050;-60
2023/07/21 08:20:25;;;;;;;33.50;23.40;;;19.00;99.90;;;;;;4967445;28;20480;-60
2023/07/21 08:22:51;;;;;;;32.05;22.02;;;18.90;99.90;;;;;;4966024;28;20035;-60
2023/07/21 08:25:17;;;;;;;34.00;21.38;;;19.00;99.90;;;;;;4972158;28;20500;-60
2023/07/21 08:27:43;;;;;;;31.52;21.92;;;19.10;99.90;;;;;;4968903;28;20031;-61
2023/07/21 08:30:09;;;;;;;29.20;20.50;;;19.20;99.90;;;;;;4966701;28;20088;-61
2023/07/21 08:32:36;;;;;;;31.85;21.52;;;19.30;99.90;;;;;;4969820;28;20031;-61
2023/07/21 08:35:03;;;;;;;29.52;19.98;;;19.40;99.90;;;;;;4966306;28;20493;-60
2023/07/21 08:37:30;;;;;;;19.33;15.23;;;19.40;99.90;;;;;;4968983;28;20385;-57
2023/07/21 08:39:55;;;;;;;27.13;19.85;;;19.50;99.90;;;;;;4974505;28;20026;-60
2023/07/21 08:42:23;;;;;;;27.48;20.05;;;19.60;99.90;;;;;;4969732;28;20115;-61
2023/07/21 08:44:50;;;;;;;26.90;19.02;;;19.60;99.90;;;;;;4970527;28;20031;-61
2023/07/21 08:47:16;;;;;;;29.85;20.23;;;19.50;99.90;;;;;;4968772;28;20033;-60
2023/07/21 08:49:41;;;;;;;27.83;20.77;;;19.40;99.90;;;;;;4965905;28;20114;-59
2023/07/21 08:52:07;;;;;;;27.35;19.00;;;19.60;99.90;;;;;;4970132;28;20039;-60
2023/07/21 08:54:32;;;;;;;26.33;20.33;;;19.70;99.90;;;;;;4967393;28;20023;-59
2023/07/21 08:56:58;;;;;;;26.27;19.15;;;19.80;99.90;;;;;;4968525;28;20457;-57
2023/07/21 08:59:23;;;;;;;34.25;20.38;;;19.80;99.90;;;;;;4968029;28;20040;-57
2023/07/21 09:01:49;;;;;;;25.00;19.30;;;19.90;99.90;;;;;;4966588;28;20031;-61
2023/07/21 09:04:22;;;;;;;21.08;16.25;;;20.00;99.90;;;;;;4965301;28;20051;-60
2023/07/21 09:06:59;;;;;;;30.10;18.37;;;20.10;99.90;;;;;;4964695;28;20358;-60
2023/07/21 09:09:27;;;;;;;23.42;17.42;;;20.20;99.90;;;;;;4964341;28;20053;-61
2023/07/21 09:12:09;;;;;;;30.08;21.00;;;20.20;99.90;;;;;;4958416;28;20501;-60
2023/07/21 09:14:39;;;;;;;34.92;22.25;;;19.90;99.90;;;;;;4964309;28;20031;-61
2023/07/21 09:17:06;;;;;;;27.85;19.30;;;19.90;99.90;;;;;;4967146;28;20038;-58
2023/07/21 09:19:36;;;;;;;28.98;19.90;;;20.20;99.90;;;;;;4964142;28;20031;-59
2023/07/21 09:22:02;;;;;;;26.00;21.73;;;20.20;99.90;;;;;;4965172;28;20027;-61
2023/07/21 09:24:27;;;;;;;24.98;18.13;;;20.20;99.90;;;;;;4966659;28;20525;-58
2023/07/21 09:27:13;;;;;;;23.60;17.73;;;20.20;99.90;;;;;;4965239;28;20026;-60
2023/07/21 09:29:40;;;;;;;24.80;16.38;;;20.40;99.90;;;;;;4966640;28;20511;-60
2023/07/21 09:32:15;;;;;;;25.45;17.70;;;20.70;99.90;;;;;;4962531;28;20484;-60
2023/07/21 09:34:59;;;;;;;27.98;17.48;;;20.90;99.90;;;;;;4961464;28;20037;-62
2023/07/21 09:37:26;;;;;;;17.23;13.35;;;20.90;99.90;;;;;;4967988;28;20187;-60
2023/07/21 09:39:54;;;;;;;16.52;12.73;;;20.70;99.90;;;;;;4961902;28;20062;-61
2023/07/21 09:42:23;;;;;;;17.73;13.13;;;20.60;99.90;;;;;;4963874;28;20256;-58
2023/07/21 09:44:49;;;;;;;23.30;13.23;;;20.70;99.90;;;;;;4963683;28;20134;-59
2023/07/21 09:47:16;;;;;;;16.08;11.18;;;20.80;99.90;;;;;;4965121;28;20034;-60
2023/07/21 09:49:42;;;;;;;14.95;11.90;;;20.90;99.90;;;;;;4961715;28;20750;-60
2023/07/21 09:52:15;;;;;;;14.43;11.38;;;20.40;99.90;;;;;;4965187;28;20034;-58
2023/07/21 09:54:44;;;;;;;18.25;11.10;;;20.30;99.90;;;;;;4964292;28;20027;-58
2023/07/21 09:57:13;;;;;;;13.95;9.07;;;20.50;99.90;;;;;;4964561;28;20039;-60
2023/07/21 09:59:43;;;;;;;10.00;7.15;;;20.60;99.90;;;;;;4964367;28;20019;-60
2023/07/21 10:02:09;;;;;;;9.02;5.85;;;20.80;99.90;;;;;;4965834;28;20035;-60
2023/07/21 10:04:35;;;;;;;7.20;4.30;;;21.10;99.90;;;;;;4966059;28;20061;-60
2023/07/21 10:07:03;;;;;;;8.70;5.63;;;21.10;99.90;;;;;;4967982;28;20086;-60
2023/07/21 10:09:31;;;;;;;10.35;6.35;;;21.30;99.90;;;;;;4966652;28;20113;-61
2023/07/21 10:12:39;;;;;;;8.80;6.32;;;21.30;99.90;;;;;;4965047;28;20105;-61
2023/07/21 10:15:14;;;;;;;9.48;6.55;;;21.30;99.90;;;;;;4961696;28;20043;-61
2023/07/21 10:17:54;;;;;;;14.00;6.93;;;21.30;99.90;;;;;;4968320;28;20389;-61
2023/07/21 10:20:20;;;;;;;6.80;4.68;;;21.40;99.90;;;;;;4965637;28;20464;-60
2023/07/21 10:22:55;;;;;;;9.77;6.78;;;21.60;99.90;;;;;;4964599;28;20050;-61
2023/07/21 10:25:23;;;;;;;7.57;5.47;;;21.70;99.90;;;;;;4965710;28;20022;-61
2023/07/21 10:28:01;;;;;;;7.35;5.45;;;21.80;99.90;;;;;;4963222;28;21200;-61
2023/07/21 10:30:27;;;;;;;7.72;4.57;;;22.00;99.90;;;;;;4968436;28;21526;-61
2023/07/21 10:32:52;;;;;;;13.50;6.25;;;22.10;99.90;;;;;;4964460;28;20039;-60
2023/07/21 10:35:36;;;;;;;10.50;5.18;;;22.10;99.90;;;;;;4969475;28;20444;-61
2023/07/21 10:38:13;;;;;;;8.23;5.53;;;21.90;99.90;;;;;;4965189;28;20031;-60
2023/07/21 10:40:41;;;;;;;9.25;5.30;;;21.80;99.90;;;;;;4964821;28;20107;-58
2023/07/21 10:43:06;;;;;;;7.85;5.03;;;21.70;99.90;;;;;;4963682;28;20019;-59
2023/07/21 10:45:32;;;;;;;7.45;4.80;;;21.50;99.90;;;;;;4962743;28;20497;-59
2023/07/21 10:48:11;;;;;;;11.23;5.32;;;21.40;99.90;;;;;;4963891;28;20071;-59
2023/07/21 10:50:41;;;;;;;10.02;5.22;;;21.60;99.90;;;;;;4966686;28;20039;-58
2023/07/21 10:53:07;;;;;;;9.48;5.75;;;21.60;99.90;;;;;;4968755;28;20027;-60
2023/07/21 10:55:36;;;;;;;5.88;4.70;;;21.70;99.90;;;;;;4964870;28;20031;-60
2023/07/21 10:58:01;;;;;;;7.18;4.30;;;21.50;99.90;;;;;;4966421;28;20105;-60
2023/07/21 11:00:27;;;;;;;8.52;4.85;;;21.60;99.90;;;;;;4966873;28;20034;-59
2023/07/21 11:02:54;;;;;;;11.48;4.38;;;21.70;99.90;;;;;;4968147;28;20562;-57
2023/07/21 11:05:20;;;;;;;5.82;4.82;;;21.60;99.90;;;;;;4968003;28;20031;-60
2023/07/21 11:07:46;;;;;;;10.10;5.22;;;21.60;99.90;;;;;;4966810;28;20088;-59
2023/07/21 11:10:11;;;;;;;6.88;5.30;;;21.40;99.90;;;;;;4966744;28;20030;-61
2023/07/21 11:12:37;;;;;;;12.65;4.78;;;21.40;99.90;;;;;;4970185;28;20048;-58
2023/07/21 11:15:03;;;;;;;7.55;4.63;;;21.30;99.90;;;;;;4971467;28;20447;-60
2023/07/21 11:17:32;;;;;;;10.90;4.53;;;21.40;99.90;;;;;;4965491;28;20110;-58
2023/07/21 11:20:05;;;;;;;6.57;4.05;;;21.30;99.90;;;;;;4969878;28;20701;-59
2023/07/21 11:22:33;;;;;;;6.65;4.50;;;21.50;99.90;;;;;;4969579;28;20481;-61
2023/07/21 11:25:09;;;;;;;7.57;4.38;;;21.60;99.90;;;;;;4965028;28;20535;-60
2023/07/21 11:27:35;;;;;;;4.95;3.58;;;21.70;99.90;;;;;;4970814;28;20073;-59
2023/07/21 11:30:01;;;;;;;7.32;3.90;;;21.60;99.90;;;;;;4967484;28;20063;-60
2023/07/21 11:32:27;;;;;;;6.35;3.67;;;21.60;99.90;;;;;;4968358;28;20030;-58
2023/07/21 11:34:56;;;;;;;7.72;4.20;;;21.50;99.90;;;;;;4968224;28;20437;-61
2023/07/21 11:37:22;;;;;;;6.45;4.45;;;21.30;99.90;;;;;;4966983;28;20043;-61
2023/07/21 11:39:57;;;;;;;5.75;4.35;;;21.10;99.90;;;;;;4965801;28;20454;-60
2023/07/21 11:42:23;;;;;;;4.15;3.35;;;21.20;99.90;;;;;;4964169;28;20034;-60
2023/07/21 11:44:49;;;;;;;5.40;3.88;;;21.40;99.90;;;;;;4968161;28;20122;-59
2023/07/21 11:47:16;;;;;;;5.45;4.60;;;21.50;99.90;;;;;;4972409;28;20450;-57
2023/07/21 11:49:46;;;;;;;7.32;4.03;;;21.50;99.90;;;;;;4971735;28;20455;-61
2023/07/21 11:52:23;;;;;;;6.70;3.78;;;21.80;99.90;;;;;;4970425;28;20574;-60
2023/07/21 11:54:48;;;;;;;8.00;4.03;;;22.30;99.90;;;;;;4970677;28;20421;-59
2023/07/21 11:57:14;;;;;;;6.68;3.40;;;22.40;99.90;;;;;;4969778;28;20121;-59
2023/07/21 11:59:40;;;;;;;5.50;2.47;;;22.40;99.90;;;;;;4970249;28;20026;-55
2023/07/21 12:02:07;;;;;;;3.35;2.35;;;22.80;99.90;;;;;;4971326;28;20122;-59
2023/07/21 12:04:34;;;;;;;3.78;2.50;;;22.90;99.90;;;;;;4971301;28;20031;-58
2023/07/21 12:07:00;;;;;;;5.35;2.63;;;22.70;99.90;;;;;;4970665;28;20077;-59
2023/07/21 12:09:26;;;;;;;5.72;2.85;;;22.20;99.90;;;;;;4970750;28;20515;-62
2023/07/21 12:11:56;;;;;;;5.90;2.45;;;22.20;99.90;;;;;;4967818;28;20429;-60
2023/07/21 12:14:23;;;;;;;5.80;3.42;;;21.80;99.90;;;;;;4972439;28;20027;-60
2023/07/21 12:16:50;;;;;;;7.30;2.88;;;21.60;99.90;;;;;;4970776;28;20034;-59
2023/07/21 12:19:16;;;;;;;3.45;2.40;;;21.40;99.90;;;;;;4971779;28;20034;-60
2023/07/21 12:21:41;;;;;;;5.22;1.80;;;21.60;99.90;;;;;;4969615;28;20027;-60
2023/07/21 12:24:07;;;;;;;5.20;2.53;;;21.80;99.90;;;;;;4972222;28;20097;-60
2023/07/21 12:26:32;;;;;;;6.93;3.15;;;21.90;99.90;;;;;;4969797;28;20109;-60
2023/07/21 12:28:58;;;;;;;3.45;2.53;;;22.00;99.90;;;;;;4969477;28;20492;-61
2023/07/21 12:31:24;;;;;;;4.60;2.70;;;21.90;99.90;;;;;;4965982;28;20026;-60